sensor_id;sensor_type;location;lat;lon;timestamp;pressure;altitude;pressure_sealevel;temperature;humidity
52983;BME280;48698;45.736;13.926;2022-09-29T05:16:17;96042.81;;;13.45;100.00
52983;BME280;48698;45.736;13.926;2022-09-29T05:21:20;96063.28;;;13.75;100.00
52983;BME280;48698;45.736;13.926;2022-09-29T05:26:29;96040.94;;;13.76;100.00
52983;BME280;48698;45.736;13.926;2022-09-29T05:31:32;96053.66;;;14.03;100.00
52983;BME280;48698;45.736;13.926;2022-09-29T05:36:36;96063.53;;;14.31;100.00
52983;BME280;48698;45.736;13.926;2022-09-29T05:41:39;96074.38;;;14.39;100.00
52983;BME280;48698;45.736;13.926;2022-09-29T05:46:41;96079.31;;;14.34;100.00
52983;BME280;48698;45.736;13.926;2022-09-29T05:51:45;96031.19;;;14.05;100.00
52983;BME280;48698;45.736;13.926;2022-09-29T05:56:47;96071.31;;;14.34;100.00
52983;BME280;48698;45.736;13.926;2022-09-29T06:01:50;96021.63;;;14.12;100.00
52983;BME280;48698;45.736;13.926;2022-09-29T06:06:53;96073.69;;;14.46;100.00
52983;BME280;48698;45.736;13.926;2022-09-29T06:11:57;96090.00;;;14.72;100.00
52983;BME280;48698;45.736;13.926;2022-09-29T06:17:00;96088.88;;;14.84;100.00
52983;BME280;48698;45.736;13.926;2022-09-29T06:22:03;96094.91;;;14.96;100.00
52983;BME280;48698;45.736;13.926;2022-09-29T06:27:05;96017.31;;;14.49;100.00
52983;BME280;48698;45.736;13.926;2022-09-29T06:32:08;96107.13;;;15.08;100.00
52983;BME280;48698;45.736;13.926;2022-09-29T06:37:11;95991.59;;;14.58;100.00
52983;BME280;48698;45.736;13.926;2022-09-29T06:42:33;96110.59;;;15.47;100.00
52983;BME280;48698;45.736;13.926;2022-09-29T06:47:36;96098.06;;;15.47;100.00
52983;BME280;48698;45.736;13.926;2022-09-29T06:52:39;96022.41;;;15.09;100.00
52983;BME280;48698;45.736;13.926;2022-09-29T06:57:44;96101.16;;;15.52;100.00
52983;BME280;48698;45.736;13.926;2022-09-29T07:02:47;96124.78;;;15.67;100.00
52983;BME280;48698;45.736;13.926;2022-09-29T07:07:50;96107.28;;;15.72;100.00
52983;BME280;48698;45.736;13.926;2022-09-29T07:12:59;96100.22;;;15.71;100.00
52983;BME280;48698;45.736;13.926;2022-09-29T07:18:03;96132.97;;;15.92;100.00
52983;BME280;48698;45.736;13.926;2022-09-29T07:23:06;96122.66;;;16.07;100.00
52983;BME280;48698;45.736;13.926;2022-09-29T07:28:12;95995.44;;;15.48;100.00
52983;BME280;48698;45.736;13.926;2022-09-29T07:33:16;96068.53;;;16.03;100.00
52983;BME280;48698;45.736;13.926;2022-09-29T07:38:30;96062.66;;;16.18;100.00
52983;BME280;48698;45.736;13.926;2022-09-29T07:43:33;96094.34;;;16.67;100.00
52983;BME280;48698;45.736;13.926;2022-09-29T07:48:36;96128.06;;;17.48;100.00
52983;BME280;48698;45.736;13.926;2022-09-29T07:53:40;96127.09;;;17.75;100.00
52983;BME280;48698;45.736;13.926;2022-09-29T07:58:44;96112.72;;;17.41;100.00
52983;BME280;48698;45.736;13.926;2022-09-29T08:03:52;96095.59;;;16.73;100.00
52983;BME280;48698;45.736;13.926;2022-09-29T08:08:55;96121.94;;;16.60;100.00
52983;BME280;48698;45.736;13.926;2022-09-29T08:14:07;96123.75;;;16.59;100.00
52983;BME280;48698;45.736;13.926;2022-09-29T08:19:10;96147.94;;;16.67;100.00
52983;BME280;48698;45.736;13.926;2022-09-29T08:24:17;96091.75;;;16.13;100.00
52983;BME280;48698;45.736;13.926;2022-09-29T08:29:20;96149.56;;;16.33;100.00
52983;BME280;48698;45.736;13.926;2022-09-29T08:34:23;96149.19;;;16.18;100.00
52983;BME280;48698;45.736;13.926;2022-09-29T08:39:26;96175.34;;;16.61;100.00
52983;BME280;48698;45.736;13.926;2022-09-29T08:44:39;96057.03;;;16.38;100.00
52983;BME280;48698;45.736;13.926;2022-09-29T08:49:47;96066.38;;;17.31;100.00
52983;BME280;48698;45.736;13.926;2022-09-29T08:55:07;96178.31;;;18.91;100.00
52983;BME280;48698;45.736;13.926;2022-09-29T09:00:29;96112.09;;;19.31;100.00
52983;BME280;48698;45.736;13.926;2022-09-29T09:11:48;96118.66;;;19.36;100.00
52983;BME280;48698;45.736;13.926;2022-09-29T09:16:52;96129.41;;;19.20;100.00
52983;BME280;48698;45.736;13.926;2022-09-29T09:22:24;96117.84;;;19.52;100.00
52983;BME280;48698;45.736;13.926;2022-09-29T09:27:33;96108.38;;;18.99;100.00
52983;BME280;48698;45.736;13.926;2022-09-29T09:32:45;95962.09;;;17.62;100.00
52983;BME280;48698;45.736;13.926;2022-09-29T09:37:49;95994.66;;;17.33;100.00
52983;BME280;48698;45.736;13.926;2022-09-29T09:43:00;96118.41;;;17.81;100.00
52983;BME280;48698;45.736;13.926;2022-09-29T09:48:31;96138.16;;;17.72;100.00
52983;BME280;48698;45.736;13.926;2022-09-29T09:53:39;96123.47;;;17.41;100.00
52983;BME280;48698;45.736;13.926;2022-09-29T09:59:08;96131.06;;;17.45;100.00
52983;BME280;48698;45.736;13.926;2022-09-29T10:04:16;96043.75;;;17.08;100.00
52983;BME280;48698;45.736;13.926;2022-09-29T10:09:19;96048.81;;;17.11;100.00
52983;BME280;48698;45.736;13.926;2022-09-29T10:14:25;96054.56;;;17.67;100.00
52983;BME280;48698;45.736;13.926;2022-09-29T10:25:18;96141.28;;;17.24;100.00
52983;BME280;48698;45.736;13.926;2022-09-29T10:30:33;95943.34;;;15.70;100.00
52983;BME280;48698;45.736;13.926;2022-09-29T10:35:39;96173.38;;;16.81;100.00
52983;BME280;48698;45.736;13.926;2022-09-29T10:40:58;96206.66;;;16.70;100.00
52983;BME280;48698;45.736;13.926;2022-09-29T10:46:03;96179.31;;;16.30;100.00
52983;BME280;48698;45.736;13.926;2022-09-29T10:51:15;96213.19;;;16.21;100.00
52983;BME280;48698;45.736;13.926;2022-09-29T10:56:21;96197.78;;;16.33;100.00
52983;BME280;48698;45.736;13.926;2022-09-29T11:01:28;96223.50;;;16.53;100.00
52983;BME280;48698;45.736;13.926;2022-09-29T11:06:35;96216.63;;;16.95;100.00
52983;BME280;48698;45.736;13.926;2022-09-29T11:16:55;96221.88;;;16.87;100.00
52983;BME280;48698;45.736;13.926;2022-09-29T11:22:33;96221.16;;;17.13;100.00
52983;BME280;48698;45.736;13.926;2022-09-29T11:33:30;96204.00;;;17.59;100.00
52983;BME280;48698;45.736;13.926;2022-09-29T11:43:52;96190.78;;;17.47;100.00
52983;BME280;48698;45.736;13.926;2022-09-29T12:20:26;96225.72;;;16.85;100.00
52983;BME280;48698;45.736;13.926;2022-09-29T12:25:34;96183.25;;;16.63;100.00
52983;BME280;48698;45.736;13.926;2022-09-29T12:30:48;96204.34;;;16.75;100.00
52983;BME280;48698;45.736;13.926;2022-09-29T12:36:19;96205.25;;;16.84;100.00
52983;BME280;48698;45.736;13.926;2022-09-29T12:41:50;96222.19;;;16.67;100.00
52983;BME280;48698;45.736;13.926;2022-09-29T12:47:04;96221.22;;;16.85;100.00
52983;BME280;48698;45.736;13.926;2022-09-29T12:52:19;96228.09;;;16.88;100.00
52983;BME280;48698;45.736;13.926;2022-09-29T12:57:29;96243.59;;;17.12;100.00
52983;BME280;48698;45.736;13.926;2022-09-29T13:30:37;96160.16;;;17.15;100.00
52983;BME280;48698;45.736;13.926;2022-09-29T13:35:45;96170.94;;;17.58;100.00
52983;BME280;48698;45.736;13.926;2022-09-29T13:57:17;96147.66;;;17.92;100.00
52983;BME280;48698;45.736;13.926;2022-09-29T14:03:00;96139.81;;;17.99;100.00
52983;BME280;48698;45.736;13.926;2022-09-29T14:08:11;96134.25;;;17.92;100.00
52983;BME280;48698;45.736;13.926;2022-09-29T14:13:26;96138.88;;;17.82;100.00
52983;BME280;48698;45.736;13.926;2022-09-29T14:18:42;96138.03;;;17.82;100.00
52983;BME280;48698;45.736;13.926;2022-09-29T14:23:49;96068.03;;;17.49;100.00
52983;BME280;48698;45.736;13.926;2022-09-29T14:28:54;96081.38;;;17.59;100.00
52983;BME280;48698;45.736;13.926;2022-09-29T14:34:00;96154.97;;;18.08;100.00
52983;BME280;48698;45.736;13.926;2022-09-29T14:39:04;96061.69;;;17.84;100.00
52983;BME280;48698;45.736;13.926;2022-09-29T14:44:28;96112.69;;;18.52;100.00
52983;BME280;48698;45.736;13.926;2022-09-29T15:01:09;96161.22;;;18.17;100.00
52983;BME280;48698;45.736;13.926;2022-09-29T15:06:21;96158.66;;;18.07;100.00
52983;BME280;48698;45.736;13.926;2022-09-29T15:27:19;96134.88;;;17.86;100.00
52983;BME280;48698;45.736;13.926;2022-09-29T15:32:25;96094.78;;;17.59;100.00
52983;BME280;48698;45.736;13.926;2022-09-29T15:42:52;96135.09;;;17.67;100.00
52983;BME280;48698;45.736;13.926;2022-09-29T15:48:02;96147.88;;;17.73;100.00
52983;BME280;48698;45.736;13.926;2022-09-29T15:53:05;96119.25;;;17.56;100.00
52983;BME280;48698;45.736;13.926;2022-09-29T16:03:43;96117.78;;;17.62;100.00
52983;BME280;48698;45.736;13.926;2022-09-29T16:08:51;96027.97;;;17.04;100.00
52983;BME280;48698;45.736;13.926;2022-09-29T16:14:00;96107.31;;;17.33;100.00
52983;BME280;48698;45.736;13.926;2022-09-29T16:19:15;96048.63;;;16.86;100.00
52983;BME280;48698;45.736;13.926;2022-09-29T16:24:28;96044.63;;;16.37;100.00
52983;BME280;48698;45.736;13.926;2022-09-29T16:29:33;96148.50;;;16.71;100.00
52983;BME280;48698;45.736;13.926;2022-09-29T16:34:37;96088.94;;;16.04;100.00
52983;BME280;48698;45.736;13.926;2022-09-29T16:39:45;95914.53;;;14.63;100.00
52983;BME280;48698;45.736;13.926;2022-09-29T16:44:50;96142.41;;;15.40;100.00
52983;BME280;48698;45.736;13.926;2022-09-29T16:49:57;95899.16;;;13.71;100.00
52983;BME280;48698;45.736;13.926;2022-09-29T17:00:29;96210.13;;;15.02;100.00
52983;BME280;48698;45.736;13.926;2022-09-29T17:05:35;96194.88;;;14.55;100.00
52983;BME280;48698;45.736;13.926;2022-09-29T17:10:39;96151.25;;;14.35;100.00
52983;BME280;48698;45.736;13.926;2022-09-29T17:15:43;96257.38;;;14.73;100.00
52983;BME280;48698;45.736;13.926;2022-09-29T17:20:47;96257.91;;;14.67;100.00
52983;BME280;48698;45.736;13.926;2022-09-29T17:25:50;96230.47;;;14.65;100.00
52983;BME280;48698;45.736;13.926;2022-09-29T17:30:53;96230.25;;;14.78;100.00
52983;BME280;48698;45.736;13.926;2022-09-29T17:35:57;96204.75;;;14.64;100.00
52983;BME280;48698;45.736;13.926;2022-09-29T17:41:00;96262.06;;;15.19;100.00
52983;BME280;48698;45.736;13.926;2022-09-29T17:46:04;96263.38;;;15.34;100.00
52983;BME280;48698;45.736;13.926;2022-09-29T17:51:08;96242.25;;;15.41;100.00
52983;BME280;48698;45.736;13.926;2022-09-29T17:56:19;96255.19;;;15.36;100.00
52983;BME280;48698;45.736;13.926;2022-09-29T18:01:24;96163.09;;;14.62;100.00
52983;BME280;48698;45.736;13.926;2022-09-29T18:06:29;96207.56;;;14.63;100.00
52983;BME280;48698;45.736;13.926;2022-09-29T18:11:34;96022.19;;;13.47;100.00
52983;BME280;48698;45.736;13.926;2022-09-29T18:16:36;96018.38;;;13.10;100.00
52983;BME280;48698;45.736;13.926;2022-09-29T18:21:39;96286.28;;;14.59;100.00
52983;BME280;48698;45.736;13.926;2022-09-29T18:26:43;96008.25;;;12.83;100.00
52983;BME280;48698;45.736;13.926;2022-09-29T18:31:47;96091.63;;;12.94;100.00
52983;BME280;48698;45.736;13.926;2022-09-29T18:36:49;96242.47;;;13.59;100.00
52983;BME280;48698;45.736;13.926;2022-09-29T18:41:52;96148.78;;;13.22;100.00
52983;BME280;48698;45.736;13.926;2022-09-29T18:46:55;96076.75;;;12.92;100.00
52983;BME280;48698;45.736;13.926;2022-09-29T18:51:58;96187.47;;;13.37;100.00
52983;BME280;48698;45.736;13.926;2022-09-29T18:57:01;96261.81;;;14.03;100.00
52983;BME280;48698;45.736;13.926;2022-09-29T19:02:07;96304.84;;;14.30;100.00
52983;BME280;48698;45.736;13.926;2022-09-29T19:07:11;96304.13;;;14.28;100.00
52983;BME280;48698;45.736;13.926;2022-09-29T19:12:15;96126.78;;;13.30;100.00
52983;BME280;48698;45.736;13.926;2022-09-29T19:17:20;96201.63;;;13.89;100.00
52983;BME280;48698;45.736;13.926;2022-09-29T19:22:25;96282.34;;;14.53;100.00
52983;BME280;48698;45.736;13.926;2022-09-29T19:27:30;96308.31;;;14.81;100.00
52983;BME280;48698;45.736;13.926;2022-09-29T19:32:33;96291.81;;;14.76;100.00
52983;BME280;48698;45.736;13.926;2022-09-29T19:37:35;96302.28;;;14.98;100.00
52983;BME280;48698;45.736;13.926;2022-09-29T19:42:39;96303.56;;;14.94;100.00
52983;BME280;48698;45.736;13.926;2022-09-29T19:47:42;96273.97;;;14.77;100.00
52983;BME280;48698;45.736;13.926;2022-09-29T19:52:46;96188.53;;;14.37;100.00
52983;BME280;48698;45.736;13.926;2022-09-29T19:57:49;96268.66;;;14.96;100.00
52983;BME280;48698;45.736;13.926;2022-09-29T20:02:52;96169.44;;;14.11;100.00
52983;BME280;48698;45.736;13.926;2022-09-29T20:07:55;96312.50;;;14.74;100.00
52983;BME280;48698;45.736;13.926;2022-09-29T20:12:58;96248.69;;;14.11;100.00
52983;BME280;48698;45.736;13.926;2022-09-29T20:18:01;96360.09;;;14.60;100.00
52983;BME280;48698;45.736;13.926;2022-09-29T20:23:04;96204.44;;;13.36;100.00
52983;BME280;48698;45.736;13.926;2022-09-29T20:28:07;96209.69;;;13.27;100.00
52983;BME280;48698;45.736;13.926;2022-09-29T20:33:41;96306.56;;;13.69;100.00
52983;BME280;48698;45.736;13.926;2022-09-29T20:38:45;96341.91;;;14.03;100.00
52983;BME280;48698;45.736;13.926;2022-09-29T20:43:52;96347.13;;;13.83;100.00
52983;BME280;48698;45.736;13.926;2022-09-29T20:48:58;96346.69;;;13.78;100.00
52983;BME280;48698;45.736;13.926;2022-09-29T20:54:01;96350.50;;;13.85;100.00
52983;BME280;48698;45.736;13.926;2022-09-29T20:59:04;96343.22;;;13.87;100.00
52983;BME280;48698;45.736;13.926;2022-09-29T21:04:10;96180.59;;;12.71;100.00
52983;BME280;48698;45.736;13.926;2022-09-29T21:09:16;96373.69;;;14.06;100.00
52983;BME280;48698;45.736;13.926;2022-09-29T21:21:12;96316.84;;;13.73;100.00
52983;BME280;48698;45.736;13.926;2022-09-29T21:26:17;96378.63;;;13.89;100.00
52983;BME280;48698;45.736;13.926;2022-09-29T21:31:26;96405.31;;;13.89;100.00
52983;BME280;48698;45.736;13.926;2022-09-29T21:36:31;96393.97;;;13.76;100.00
52983;BME280;48698;45.736;13.926;2022-09-29T21:41:39;96393.63;;;14.02;100.00
52983;BME280;48698;45.736;13.926;2022-09-29T21:46:42;96170.03;;;13.13;100.00
52983;BME280;48698;45.736;13.926;2022-09-29T21:51:48;96344.75;;;14.52;100.00
52983;BME280;48698;45.736;13.926;2022-09-29T21:56:51;96375.66;;;14.85;100.00
52983;BME280;48698;45.736;13.926;2022-09-29T22:01:54;96336.81;;;14.71;100.00
52983;BME280;48698;45.736;13.926;2022-09-29T22:06:57;96300.75;;;14.56;100.00
52983;BME280;48698;45.736;13.926;2022-09-29T22:12:00;96213.13;;;14.10;100.00
52983;BME280;48698;45.736;13.926;2022-09-29T22:17:03;96159.72;;;13.70;100.00
52983;BME280;48698;45.736;13.926;2022-09-29T22:22:06;96331.56;;;14.60;100.00
52983;BME280;48698;45.736;13.926;2022-09-29T22:27:09;96377.59;;;14.73;100.00
52983;BME280;48698;45.736;13.926;2022-09-29T22:39:06;96391.41;;;14.78;100.00
52983;BME280;48698;45.736;13.926;2022-09-29T22:44:09;96352.75;;;14.52;100.00
52983;BME280;48698;45.736;13.926;2022-09-29T22:49:12;96254.00;;;13.80;100.00
52983;BME280;48698;45.736;13.926;2022-09-29T22:54:15;96333.25;;;13.89;100.00
52983;BME280;48698;45.736;13.926;2022-09-29T22:59:18;96208.53;;;13.20;100.00
52983;BME280;48698;45.736;13.926;2022-09-29T23:04:21;96432.28;;;14.69;100.00
52983;BME280;48698;45.736;13.926;2022-09-29T23:09:25;96407.97;;;14.72;100.00
52983;BME280;48698;45.736;13.926;2022-09-29T23:14:28;96446.47;;;14.90;100.00
52983;BME280;48698;45.736;13.926;2022-09-29T23:19:31;96294.66;;;14.14;100.00
52983;BME280;48698;45.736;13.926;2022-09-29T23:24:34;96305.06;;;14.17;100.00
52983;BME280;48698;45.736;13.926;2022-09-29T23:29:37;96287.63;;;13.92;100.00
52983;BME280;48698;45.736;13.926;2022-09-29T23:34:39;96337.03;;;14.08;100.00
52983;BME280;48698;45.736;13.926;2022-09-29T23:40:08;96426.84;;;14.50;100.00
52983;BME280;48698;45.736;13.926;2022-09-29T23:45:10;96402.72;;;14.20;100.00
52983;BME280;48698;45.736;13.926;2022-09-29T23:50:13;96481.81;;;14.73;100.00
52983;BME280;48698;45.736;13.926;2022-09-29T23:55:18;96485.78;;;14.79;100.00
